SPJC

Jorge Chávez International Airport

Callao, Peru
TAF SPJC 221100Z 2212/2312 16005KT 9999 SCT015 SCT150 TX27/2220Z TN20/2311Z TEMPO 2212/2213 BKN012 BECMG 2215/2217 18011KT CAVOK FM230000 16007KT 9999 SCT040 BKN150
Issued Valid From Valid To
Jan-22 @ 11:00 UTC
(6 hours ago)
Jan-22 @ 12:00 UTC
(5 hours ago)
Jan-23 @ 12:00 UTC
(in 19 hours)
Expired Click to View Jan-22 @ 12:00 to Jan-22 @ 15:00
TAF SPJC 221100Z 2212/2312 16005KT 9999 SCT015 SCT150 TX27/2220Z TN20/2311Z
Wind Visibility Clouds
160° at 5 knots 10,000+ meters
  • Scattered at 1,500' AGL
  • Scattered at 15,000' AGL
Expired Click to View Jan-22 @ 12:00 to Jan-22 @ 13:00
TEMPO 2212/2213 BKN012
Clouds
  • Broken at 1,200' AGL
Becoming Jan-22 @ 15:00 to Jan-23 @ 00:00
BECMG 2215/2217 18011KT CAVOK
Wind Visibility Clouds Conditions
180° at 11 knots 10,000+ meters
  • No significant clouds
From Jan-23 @ 00:00 to Jan-23 @ 12:00
FM230000 16007KT 9999 SCT040 BKN150
Wind Visibility Clouds
160° at 7 knots 10,000+ meters
  • Scattered at 4,000' AGL
  • Broken at 15,000' AGL
TAF SPJC 221100Z 2212/2312 16005KT 9999 SCT015 SCT150 TX27/2220Z TN20/2311Z TEMPO 2212/2213 BKN012 BECMG 2215/2217 18011KT CAVOK FM230000 16007KT 9999 SCT040 BKN150
Issued Jan-22 @ 11:00 UTC
(6 hours ago)
Valid From Jan-22 @ 12:00 UTC
(5 hours ago)
Valid To Jan-23 @ 12:00 UTC
(in 19 hours)
Jan-22 @ 12:00 - Jan-22 @ 15:00
Wind Visibility
160° at 5 knots 10,000+ meters
Clouds
  • Scattered at 1,500' AGL
  • Scattered at 15,000' AGL
Jan-22 @ 12:00 - Jan-22 @ 13:00
Clouds
  • Broken at 1,200' AGL
Becoming Jan-22 @ 15:00 - Jan-23 @ 00:00
Wind Visibility
180° at 11 knots 10,000+ meters
Clouds
  • No significant clouds
Conditions
From Jan-23 @ 00:00 - Jan-23 @ 12:00
Wind Visibility
160° at 7 knots 10,000+ meters
Clouds
  • Scattered at 4,000' AGL
  • Broken at 15,000' AGL